createdAt,value
2023-01-17T00:00:16.066Z,8.70
2023-01-17T00:02:42.818Z,7.37
2023-01-17T00:05:28.489Z,7.40
2023-01-17T00:08:13.767Z,6.30
2023-01-17T00:10:41.188Z,7.40
2023-01-17T00:13:07.835Z,6.70
2023-01-17T00:15:34.650Z,7.10
2023-01-17T00:18:01.256Z,7.30
2023-01-17T00:20:48.429Z,6.90
2023-01-17T00:23:39.223Z,7.30
2023-01-17T00:26:32.489Z,6.07
2023-01-17T00:28:59.048Z,7.03
2023-01-17T00:31:25.664Z,6.97
2023-01-17T00:33:53.430Z,7.03
2023-01-17T00:36:22.367Z,6.57
2023-01-17T00:38:48.900Z,7.27
2023-01-17T00:41:15.560Z,6.53
2023-01-17T00:44:00.720Z,6.80
2023-01-17T00:46:45.947Z,7.00
2023-01-17T00:49:31.289Z,7.50
2023-01-17T00:52:16.571Z,7.73
2023-01-17T00:55:01.954Z,6.40
2023-01-17T00:57:47.189Z,6.63
2023-01-17T01:00:37.535Z,6.93
2023-01-17T01:03:29.755Z,6.30
2023-01-17T01:06:15.062Z,7.10
2023-01-17T01:09:00.258Z,6.30
2023-01-17T01:11:45.554Z,6.87
2023-01-17T01:14:30.821Z,5.90
2023-01-17T01:17:15.957Z,5.73
2023-01-17T01:20:01.250Z,5.53
2023-01-17T01:22:46.474Z,5.63
2023-01-17T01:25:31.719Z,5.10
2023-01-17T01:28:30.107Z,5.47
2023-01-17T01:31:18.403Z,4.93
2023-01-17T01:33:45.139Z,5.60
2023-01-17T01:36:11.800Z,5.73
2023-01-17T01:38:38.523Z,5.03
2023-01-17T01:41:05.688Z,5.00
2023-01-17T01:43:52.691Z,4.80
2023-01-17T01:46:32.855Z,5.40
2023-01-17T01:49:07.327Z,5.30
2023-01-17T01:51:41.881Z,5.40
2023-01-17T01:54:21.688Z,5.50
2023-01-17T01:56:49.463Z,5.70
2023-01-17T01:59:22.929Z,5.00
2023-01-17T02:01:51.870Z,6.13
2023-01-17T02:04:19.538Z,5.40
2023-01-17T02:07:00.850Z,5.20
2023-01-17T02:09:27.833Z,5.10
2023-01-17T02:11:54.778Z,4.80
2023-01-17T02:14:30.954Z,5.17
2023-01-17T02:17:11.387Z,4.57
2023-01-17T02:19:51.881Z,4.53
2023-01-17T02:22:45.810Z,4.30
2023-01-17T02:25:15.863Z,4.43
2023-01-17T02:28:00.048Z,4.20
2023-01-17T02:30:33.223Z,4.07
2023-01-17T02:33:05.694Z,3.50
2023-01-17T02:35:42.967Z,3.70
2023-01-17T02:38:18.509Z,3.43
2023-01-17T02:40:48.470Z,4.00
2023-01-17T02:43:16.483Z,3.50
2023-01-17T02:45:43.549Z,3.80
2023-01-17T02:48:13.807Z,3.53
2023-01-17T02:50:40.476Z,3.40
2023-01-17T02:53:31.188Z,3.70
2023-01-17T02:56:08.229Z,4.30
2023-01-17T02:59:07.110Z,3.27
2023-01-17T03:01:49.426Z,3.87
2023-01-17T03:04:40.726Z,4.20
2023-01-17T03:07:13.056Z,4.47
2023-01-17T03:09:43.486Z,3.90
2023-01-17T03:12:10.367Z,4.90
2023-01-17T03:14:37.006Z,4.20
2023-01-17T03:17:03.918Z,4.47
2023-01-17T03:19:31.333Z,4.30
2023-01-17T03:21:57.909Z,4.30
2023-01-17T03:24:24.522Z,4.30
2023-01-17T03:26:51.259Z,3.50
2023-01-17T03:29:18.284Z,3.97
2023-01-17T03:31:54.019Z,3.57
2023-01-17T03:34:25.759Z,3.40
2023-01-17T03:36:52.407Z,2.90
2023-01-17T03:39:22.795Z,3.23
2023-01-17T03:41:58.583Z,3.20
2023-01-17T03:44:25.256Z,2.97
2023-01-17T03:46:51.895Z,2.80
2023-01-17T03:49:27.434Z,2.40
2023-01-17T03:51:54.067Z,2.80
2023-01-17T03:54:20.704Z,2.20
2023-01-17T03:57:19.596Z,2.10
2023-01-17T03:59:47.128Z,2.20
2023-01-17T04:02:13.846Z,2.20
2023-01-17T04:04:40.511Z,2.30
2023-01-17T04:07:12.683Z,2.30
2023-01-17T04:09:39.297Z,1.90
2023-01-17T04:12:05.983Z,1.83
2023-01-17T04:14:32.654Z,1.90
2023-01-17T04:16:59.976Z,1.70
2023-01-17T04:19:29.328Z,1.77
2023-01-17T04:21:55.903Z,1.63
2023-01-17T04:24:22.527Z,1.43
2023-01-17T04:26:49.192Z,1.50
2023-01-17T04:29:15.788Z,1.73
2023-01-17T04:31:49.716Z,1.83
2023-01-17T04:34:18.768Z,1.80
2023-01-17T04:36:47.697Z,1.63
2023-01-17T04:39:19.855Z,1.37
2023-01-17T04:41:48.999Z,1.37
2023-01-17T04:44:18.580Z,0.97
2023-01-17T04:46:52.537Z,0.90
2023-01-17T04:49:19.321Z,1.10
2023-01-17T04:51:48.996Z,0.90
2023-01-17T04:54:21.243Z,1.00
2023-01-17T04:56:50.520Z,1.00
2023-01-17T04:59:19.714Z,0.90
2023-01-17T05:01:53.992Z,1.20
2023-01-17T05:04:20.698Z,0.97
2023-01-17T05:06:50.318Z,0.80
2023-01-17T05:09:19.963Z,0.77
2023-01-17T05:11:49.541Z,0.90
2023-01-17T05:14:22.151Z,0.87
2023-01-17T05:16:54.700Z,0.80
2023-01-17T05:19:21.989Z,0.87
2023-01-17T05:21:51.223Z,1.03
2023-01-17T05:24:26.904Z,0.80
2023-01-17T05:26:54.880Z,0.90
2023-01-17T05:29:21.961Z,0.80
2023-01-17T05:31:57.390Z,0.80
2023-01-17T05:34:24.334Z,0.83
2023-01-17T05:36:51.101Z,0.80
2023-01-17T05:39:26.942Z,1.10
2023-01-17T05:41:53.611Z,0.90
2023-01-17T05:44:20.238Z,1.20
2023-01-17T05:46:49.164Z,1.20
2023-01-17T05:49:18.338Z,1.00
2023-01-17T05:51:55.019Z,1.10
2023-01-17T05:54:28.030Z,1.10
2023-01-17T05:56:54.654Z,1.40
2023-01-17T05:59:35.908Z,1.70
2023-01-17T06:02:03.438Z,1.67
2023-01-17T06:04:30.104Z,1.80
2023-01-17T06:06:56.726Z,1.90
2023-01-17T06:09:23.337Z,1.70
2023-01-17T06:11:49.944Z,2.00
2023-01-17T06:14:16.508Z,2.00
2023-01-17T06:16:43.136Z,2.17
2023-01-17T06:19:12.150Z,2.30
2023-01-17T06:21:38.759Z,2.67
2023-01-17T06:24:05.578Z,2.50
2023-01-17T06:26:32.182Z,2.70
2023-01-17T06:28:58.781Z,3.40
2023-01-17T06:31:25.539Z,2.90
2023-01-17T06:33:52.167Z,1.90
2023-01-17T06:36:18.782Z,2.47
2023-01-17T06:38:45.397Z,2.20
2023-01-17T06:41:20.560Z,2.60
2023-01-17T06:43:47.203Z,2.23
2023-01-17T06:46:13.827Z,2.30
2023-01-17T06:48:43.534Z,2.33
2023-01-17T06:51:10.375Z,2.97
2023-01-17T06:53:37.064Z,3.63
2023-01-17T06:56:03.778Z,2.40
2023-01-17T06:58:30.394Z,2.83
2023-01-17T07:00:58.513Z,2.40
2023-01-17T07:03:27.924Z,2.13
2023-01-17T07:06:03.518Z,2.37
2023-01-17T07:08:30.847Z,1.87
2023-01-17T07:11:00.192Z,2.30
2023-01-17T07:13:30.664Z,2.60
2023-01-17T07:16:00.965Z,1.97
2023-01-17T07:18:30.401Z,2.40
2023-01-17T07:20:59.474Z,2.67
2023-01-17T07:23:33.709Z,2.73
2023-01-17T07:26:01.237Z,2.70
2023-01-17T07:28:30.348Z,2.73
2023-01-17T07:31:04.829Z,3.13
2023-01-17T07:33:31.524Z,3.00
2023-01-17T07:36:03.826Z,2.30
2023-01-17T07:38:30.455Z,2.90
2023-01-17T07:41:02.718Z,2.77
2023-01-17T07:43:29.417Z,2.77
2023-01-17T07:45:56.115Z,2.70
2023-01-17T07:48:33.236Z,2.70
2023-01-17T07:50:59.971Z,2.40
2023-01-17T07:53:34.466Z,2.90
2023-01-17T07:56:10.256Z,2.60
2023-01-17T07:58:36.919Z,2.73
2023-01-17T08:01:11.986Z,2.90
2023-01-17T08:03:41.954Z,2.77
2023-01-17T08:06:18.389Z,2.80
2023-01-17T08:08:45.057Z,2.70
2023-01-17T08:11:11.694Z,2.70
2023-01-17T08:13:38.339Z,2.53
2023-01-17T08:16:05.356Z,2.63
2023-01-17T08:18:32.023Z,2.70
2023-01-17T08:21:01.043Z,3.07
2023-01-17T08:23:31.245Z,2.53
2023-01-17T08:26:01.612Z,2.90
2023-01-17T08:28:28.312Z,2.67
2023-01-17T08:31:03.826Z,2.50
2023-01-17T08:33:32.867Z,2.57
2023-01-17T08:36:02.512Z,3.27
2023-01-17T08:38:29.269Z,3.03
2023-01-17T08:40:58.720Z,3.00
2023-01-17T08:43:33.161Z,3.20
2023-01-17T08:46:01.301Z,3.20
2023-01-17T08:48:30.511Z,3.50
2023-01-17T08:51:01.007Z,3.37
2023-01-17T08:53:37.076Z,4.23
2023-01-17T08:56:05.245Z,3.33
2023-01-17T08:58:32.464Z,3.30
2023-01-17T09:01:03.203Z,4.20
2023-01-17T09:03:33.899Z,4.23
2023-01-17T09:06:20.892Z,3.60
2023-01-17T09:08:49.579Z,3.97
2023-01-17T09:11:17.559Z,3.90
2023-01-17T09:13:44.690Z,4.00
2023-01-17T09:16:11.485Z,3.97
2023-01-17T09:18:38.205Z,3.20
2023-01-17T09:21:16.480Z,3.90
2023-01-17T09:23:43.956Z,3.40
2023-01-17T09:26:36.956Z,3.80
2023-01-17T09:29:03.814Z,4.00
2023-01-17T09:31:30.697Z,3.87
2023-01-17T09:33:58.191Z,3.47
2023-01-17T09:36:31.518Z,3.30
2023-01-17T09:38:58.923Z,4.13
2023-01-17T09:41:34.218Z,3.33
2023-01-17T09:44:24.250Z,3.37
2023-01-17T09:46:53.388Z,3.90
2023-01-17T09:49:41.754Z,3.50
2023-01-17T09:52:11.427Z,3.73
2023-01-17T09:54:40.707Z,4.00
2023-01-17T09:57:13.461Z,3.30
2023-01-17T10:00:02.922Z,3.50
2023-01-17T10:02:55.838Z,3.60
2023-01-17T10:05:47.946Z,3.50
2023-01-17T10:08:48.151Z,3.80
2023-01-17T10:11:26.805Z,3.73
2023-01-17T10:14:02.322Z,3.73
2023-01-17T10:16:37.979Z,3.73
2023-01-17T10:19:31.408Z,4.27
2023-01-17T10:22:20.086Z,3.67
2023-01-17T10:24:49.897Z,3.83
2023-01-17T10:27:26.342Z,4.17
2023-01-17T10:29:54.074Z,4.20
2023-01-17T10:32:23.027Z,4.77
2023-01-17T10:34:51.650Z,5.00
2023-01-17T10:37:25.754Z,5.43
2023-01-17T10:39:54.468Z,7.30
2023-01-17T10:42:34.649Z,7.40
2023-01-17T10:45:08.519Z,8.23
2023-01-17T10:47:48.377Z,9.37
2023-01-17T10:50:22.197Z,8.93
2023-01-17T10:52:55.648Z,4.90
2023-01-17T10:55:50.910Z,5.43
2023-01-17T10:58:17.583Z,5.07
2023-01-17T11:00:54.435Z,6.73
2023-01-17T11:03:24.646Z,4.17
2023-01-17T11:06:23.336Z,5.13
2023-01-17T11:08:56.976Z,4.30
2023-01-17T11:11:30.939Z,4.57
2023-01-17T11:14:00.796Z,4.00
2023-01-17T11:16:31.367Z,4.00
2023-01-17T11:19:23.667Z,4.30
2023-01-17T11:21:56.078Z,3.87
2023-01-17T11:24:40.396Z,3.60
2023-01-17T11:27:12.041Z,3.53
2023-01-17T11:29:39.908Z,3.40
2023-01-17T11:32:24.426Z,3.30
2023-01-17T11:35:12.341Z,3.47
2023-01-17T11:37:39.347Z,3.83
2023-01-17T11:40:16.955Z,3.30
2023-01-17T11:42:43.549Z,3.23
2023-01-17T11:45:39.168Z,3.50
2023-01-17T11:48:08.782Z,4.40
2023-01-17T11:50:37.814Z,5.43
2023-01-17T11:53:16.706Z,4.17
2023-01-17T11:56:06.449Z,4.27
2023-01-17T11:58:39.901Z,3.47
2023-01-17T12:01:12.580Z,4.07
2023-01-17T12:03:59.688Z,4.30
2023-01-17T12:06:56.889Z,4.50
2023-01-17T12:09:34.132Z,4.40
2023-01-17T12:12:44.605Z,4.50
2023-01-17T12:15:26.097Z,4.93
2023-01-17T12:18:20.265Z,4.30
2023-01-17T12:20:56.088Z,4.30
2023-01-17T12:24:10.719Z,4.50
2023-01-17T12:26:52.843Z,4.00
2023-01-17T12:29:31.125Z,4.87
2023-01-17T12:32:29.917Z,5.07
2023-01-17T12:35:05.965Z,5.10
2023-01-17T12:37:52.652Z,4.53
2023-01-17T12:40:46.093Z,4.97
2023-01-17T12:43:27.543Z,5.10
2023-01-17T12:45:59.388Z,4.90
2023-01-17T12:48:36.285Z,5.73
2023-01-17T12:51:08.455Z,4.70
2023-01-17T12:54:00.398Z,5.00
2023-01-17T12:56:32.588Z,6.97
2023-01-17T12:59:13.492Z,5.47
2023-01-17T13:01:43.218Z,5.40
2023-01-17T13:04:57.297Z,5.77
2023-01-17T13:07:59.283Z,5.13
2023-01-17T13:10:41.657Z,5.47
2023-01-17T13:13:20.016Z,4.60
2023-01-17T13:15:48.986Z,4.73
2023-01-17T13:18:22.690Z,5.33
2023-01-17T13:21:21.613Z,4.97
2023-01-17T13:23:59.072Z,6.17
2023-01-17T13:26:53.754Z,5.27
2023-01-17T13:29:52.986Z,5.50
2023-01-17T13:32:38.746Z,5.80
2023-01-17T13:35:22.630Z,9.40
2023-01-17T13:38:26.732Z,5.90
2023-01-17T13:41:17.497Z,6.37
2023-01-17T13:44:07.331Z,6.20
2023-01-17T13:46:59.715Z,5.70
2023-01-17T13:49:29.309Z,6.33
2023-01-17T13:52:04.609Z,6.10
2023-01-17T13:54:32.857Z,7.00
2023-01-17T13:57:32.816Z,6.27
2023-01-17T14:00:23.117Z,6.50
2023-01-17T14:02:51.493Z,6.63
2023-01-17T14:05:21.211Z,6.27
2023-01-17T14:08:00.389Z,6.50
2023-01-17T14:10:47.370Z,6.63
2023-01-17T14:13:34.691Z,6.60
2023-01-17T14:16:02.692Z,6.40
2023-01-17T14:18:50.264Z,6.77
2023-01-17T14:21:34.976Z,7.00
2023-01-17T14:24:04.906Z,7.17
2023-01-17T14:26:34.203Z,9.60
2023-01-17T14:29:41.284Z,8.23
2023-01-17T14:32:15.058Z,8.40
2023-01-17T14:34:44.410Z,8.37
2023-01-17T14:37:18.137Z,8.80
2023-01-17T14:39:49.318Z,8.13
2023-01-17T14:42:25.298Z,8.40
2023-01-17T14:45:07.437Z,7.60
2023-01-17T14:47:46.000Z,8.10
2023-01-17T14:50:24.514Z,7.87
2023-01-17T14:53:12.727Z,8.57
2023-01-17T14:55:50.484Z,8.53
2023-01-17T14:58:36.447Z,8.83
2023-01-17T15:01:09.653Z,9.17
2023-01-17T15:03:47.173Z,8.30
2023-01-17T15:06:19.763Z,8.20
2023-01-17T15:08:46.945Z,8.20
2023-01-17T15:11:27.835Z,8.30
2023-01-17T15:13:57.323Z,8.50
2023-01-17T15:16:35.292Z,10.00
2023-01-17T15:19:03.167Z,10.20
2023-01-17T15:21:40.464Z,9.70
2023-01-17T15:24:08.401Z,9.43
2023-01-17T15:26:37.283Z,9.80
2023-01-17T15:29:08.973Z,12.83
2023-01-17T15:31:40.087Z,10.80
2023-01-17T15:34:08.804Z,10.20
2023-01-17T15:37:03.207Z,9.70
2023-01-17T15:39:30.590Z,9.87
2023-01-17T15:42:10.661Z,9.77
2023-01-17T15:44:48.179Z,11.10
2023-01-17T15:47:29.153Z,10.80
2023-01-17T15:50:30.528Z,11.50
2023-01-17T15:53:02.435Z,10.77
2023-01-17T15:55:34.721Z,10.50
2023-01-17T15:58:02.135Z,9.80
2023-01-17T16:00:37.741Z,10.23
2023-01-17T16:03:33.776Z,10.40
2023-01-17T16:06:05.338Z,10.87
2023-01-17T16:09:32.448Z,10.87
2023-01-17T16:12:00.763Z,10.03
2023-01-17T16:15:11.405Z,10.60
2023-01-17T16:18:40.032Z,9.40
2023-01-17T16:21:19.447Z,9.67
2023-01-17T16:26:52.117Z,10.30
2023-01-17T16:29:28.467Z,10.57
2023-01-17T16:32:15.954Z,11.47
2023-01-17T16:34:44.699Z,16.57
2023-01-17T16:37:11.374Z,16.87
2023-01-17T16:39:38.544Z,18.17
2023-01-17T16:42:20.187Z,12.10
2023-01-17T16:45:11.241Z,11.60
2023-01-17T16:47:49.813Z,11.23
2023-01-17T16:50:22.367Z,10.80
2023-01-17T16:52:52.594Z,11.00
2023-01-17T16:55:24.686Z,13.40
2023-01-17T16:57:54.865Z,11.40
2023-01-17T17:00:22.685Z,11.57
2023-01-17T17:02:51.152Z,11.60
2023-01-17T17:05:18.124Z,11.43
2023-01-17T17:07:45.974Z,11.50
2023-01-17T17:10:30.468Z,11.10
2023-01-17T17:13:04.683Z,11.10
2023-01-17T17:15:31.383Z,11.67
2023-01-17T17:17:58.029Z,10.97
2023-01-17T17:20:42.507Z,12.73
2023-01-17T17:23:18.946Z,14.00
2023-01-17T17:25:45.553Z,11.80
2023-01-17T17:28:14.332Z,11.53
2023-01-17T17:30:47.182Z,12.10
2023-01-17T17:33:13.947Z,12.53
2023-01-17T17:35:40.623Z,11.17
2023-01-17T17:38:07.221Z,12.63
2023-01-17T17:40:35.505Z,11.87
2023-01-17T17:43:02.289Z,12.87
2023-01-17T17:45:28.944Z,11.87
2023-01-17T17:47:55.722Z,12.50
2023-01-17T17:50:22.382Z,13.07
2023-01-17T17:52:49.167Z,12.03
2023-01-17T17:55:27.511Z,12.67
2023-01-17T17:57:54.546Z,15.30
2023-01-17T18:00:23.047Z,12.90
2023-01-17T18:02:49.718Z,13.00
2023-01-17T18:05:16.950Z,12.20
2023-01-17T18:07:43.969Z,12.67
2023-01-17T18:13:18.130Z,13.20
2023-01-17T18:16:03.881Z,12.57
2023-01-17T18:18:42.090Z,12.53
2023-01-17T18:21:29.280Z,13.20
2023-01-17T18:24:12.631Z,12.13
2023-01-17T18:29:52.630Z,12.93
2023-01-17T18:32:24.849Z,16.20
2023-01-17T18:35:48.838Z,13.03
2023-01-17T18:38:17.357Z,14.00
2023-01-17T18:41:07.890Z,11.70
2023-01-17T18:43:52.525Z,12.57
2023-01-17T18:46:23.084Z,12.30
2023-01-17T18:48:50.146Z,12.20
2023-01-17T18:51:36.018Z,11.70
2023-01-17T18:54:12.856Z,12.90
2023-01-17T18:56:39.632Z,12.30
2023-01-17T18:59:07.172Z,13.40
2023-01-17T19:01:44.737Z,12.93
2023-01-17T19:04:28.440Z,12.70
2023-01-17T19:07:00.729Z,15.70
2023-01-17T19:09:59.876Z,14.20
2023-01-17T19:12:47.078Z,14.43
2023-01-17T19:15:32.001Z,13.13
2023-01-17T19:18:06.293Z,13.33
2023-01-17T19:20:35.488Z,12.77
2023-01-17T19:23:02.463Z,13.20
2023-01-17T19:25:41.055Z,12.80
2023-01-17T19:28:08.433Z,13.17
2023-01-17T19:30:39.311Z,13.10
2023-01-17T19:33:06.333Z,13.20
2023-01-17T19:35:33.391Z,13.47
2023-01-17T19:38:00.106Z,13.23
2023-01-17T19:40:27.234Z,14.50
2023-01-17T19:42:54.017Z,14.10
2023-01-17T19:45:27.247Z,13.67
2023-01-17T19:47:54.158Z,14.60
2023-01-17T19:50:21.226Z,14.50
2023-01-17T19:52:48.153Z,16.03
2023-01-17T19:55:14.881Z,13.97
2023-01-17T19:57:41.771Z,13.80
2023-01-17T20:00:13.213Z,13.40
2023-01-17T20:02:43.201Z,12.60
2023-01-17T20:05:17.603Z,13.60
2023-01-17T20:07:44.391Z,12.80
2023-01-17T20:10:11.326Z,14.30
2023-01-17T20:12:45.584Z,12.60
2023-01-17T20:15:12.279Z,13.27
2023-01-17T20:17:41.377Z,13.63
2023-01-17T20:20:17.748Z,13.47
2023-01-17T20:22:46.235Z,13.83
2023-01-17T20:25:12.944Z,13.43
2023-01-17T20:27:49.939Z,13.40
2023-01-17T20:30:20.485Z,13.60
2023-01-17T20:32:47.841Z,13.90
2023-01-17T20:35:22.095Z,13.00
2023-01-17T20:37:52.162Z,11.03
2023-01-17T20:40:18.942Z,11.80
2023-01-17T20:42:48.009Z,11.57
2023-01-17T20:45:14.819Z,10.90
2023-01-17T20:47:41.440Z,11.97
2023-01-17T20:50:11.836Z,11.70
2023-01-17T20:52:43.879Z,11.73
2023-01-17T20:55:13.842Z,10.80
2023-01-17T20:57:43.421Z,11.20
2023-01-17T21:00:13.319Z,11.97
2023-01-17T21:02:42.638Z,12.40
2023-01-17T21:05:12.904Z,11.70
2023-01-17T21:07:39.570Z,11.10
2023-01-17T21:10:09.306Z,10.63
2023-01-17T21:12:40.613Z,10.80
2023-01-17T21:15:17.504Z,10.93
2023-01-17T21:17:44.803Z,10.90
2023-01-17T21:20:14.101Z,11.43
2023-01-17T21:22:43.209Z,11.10
2023-01-17T21:25:10.099Z,11.63
2023-01-17T21:27:42.855Z,10.43
2023-01-17T21:30:12.863Z,10.70
2023-01-17T21:32:42.760Z,11.17
2023-01-17T21:35:12.162Z,10.23
2023-01-17T21:37:41.619Z,11.33
2023-01-17T21:40:11.725Z,11.30
2023-01-17T21:42:41.116Z,11.90
2023-01-17T21:45:15.732Z,12.53
2023-01-17T21:47:45.026Z,11.20
2023-01-17T21:50:12.968Z,11.10
2023-01-17T21:52:47.223Z,11.20
2023-01-17T21:55:32.409Z,11.23
2023-01-17T21:58:17.325Z,10.87
2023-01-17T22:00:43.956Z,11.37
2023-01-17T22:03:10.603Z,11.50
2023-01-17T22:05:37.169Z,11.67
2023-01-17T22:08:14.305Z,11.30
2023-01-17T22:10:47.008Z,12.03
2023-01-17T22:13:18.134Z,11.73
2023-01-17T22:15:45.112Z,12.50
2023-01-17T22:18:13.086Z,12.63
2023-01-17T22:20:43.541Z,12.30
2023-01-17T22:23:10.520Z,12.43
2023-01-17T22:25:37.284Z,12.50
2023-01-17T22:28:04.114Z,11.87
2023-01-17T22:30:30.796Z,12.87
2023-01-17T22:32:58.259Z,11.80
2023-01-17T22:35:25.447Z,13.47
2023-01-17T22:37:53.631Z,12.90
2023-01-17T22:40:22.808Z,12.53
2023-01-17T22:42:49.481Z,12.47
2023-01-17T22:45:17.564Z,11.10
2023-01-17T22:47:44.599Z,12.70
2023-01-17T22:50:11.935Z,12.60
2023-01-17T22:52:39.003Z,12.70
2023-01-17T22:55:06.446Z,12.43
2023-01-17T22:57:34.136Z,12.17
2023-01-17T23:00:01.027Z,12.80
2023-01-17T23:02:27.730Z,14.43
2023-01-17T23:04:59.017Z,13.27
2023-01-17T23:07:27.064Z,12.43
2023-01-17T23:09:53.901Z,12.67
2023-01-17T23:12:20.470Z,12.70
2023-01-17T23:15:05.745Z,13.53
2023-01-17T23:17:51.077Z,12.37
2023-01-17T23:20:17.760Z,13.37
2023-01-17T23:22:44.399Z,13.47
2023-01-17T23:25:13.701Z,13.80
2023-01-17T23:28:00.956Z,14.00
2023-01-17T23:30:38.397Z,13.03
2023-01-17T23:33:07.084Z,13.17
2023-01-17T23:35:36.752Z,12.30
2023-01-17T23:38:23.148Z,12.77
2023-01-17T23:41:08.889Z,12.40
2023-01-17T23:43:36.389Z,12.50
2023-01-17T23:46:04.486Z,11.90
2023-01-17T23:48:31.128Z,13.37
2023-01-17T23:51:10.939Z,13.63
2023-01-17T23:53:38.325Z,12.93
2023-01-17T23:56:21.177Z,11.83
2023-01-17T23:58:47.943Z,12.70
